Tiempo atmosférico en la estación meteorológica de Montoro, Córdoba (155 m.)



Fecha
DESCASC
Temp. máxima en grados centígrados (hora)
DESCASC
Temp. mínima en grados centígrados (hora)
DESCASC
Temp. media en grados centígrados
DESCASC
Racha de viento máxima en m/sg (hora)
DESCASC
Velocidad máxima media en intervalos de 10 minutos(hora)
DESCASC
Precipitaciones diarias en mm
DESCASC
Precipitaciones de 00:00 a 06:00 en mm
DESCASC
Precipitaciones de 06:00 a 12:00 en mm
DESCASC
Precipitaciones de 12:00 a 18:00 en mm
DESCASC
Precipitaciones de 18:00 a 24:00 en mm
DESCASC
29-10-2020 27.7 (17:20) 7.6 (06:00) 17.7 6.11 (12:40) 2.78 (12:00) 0 0 0 0 0
28-10-2020 22.9 (15:50) 5.8 (06:40) 14.3 4.44 (11:50) 2.22 (11:30) 0 0 0 0 0
27-10-2020 19.8 (16:30) 4.3 (00:00) 12 4.17 (15:30) 2.22 (16:10) 0 0 0 0 0
26-10-2020 18.8 (15:00) 7.8 (00:00) 13.3 6.67 (15:00) 4.17 (16:10) 1.2 1.2 0 0 0
25-10-2020 18.9 (17:10) 8.8 (00:00) 13.8 10.28 (22:10) 5.28 (22:40) 4.8 0 0 0 4.8
24-10-2020 20.4 (17:20) 9.6 (00:00) 15 4.72 (15:20) 2.5 (16:20) 0 0 0 0 0
23-10-2020 20.9 (16:50) 12.9 (00:00) 16.9 5.83 (15:50) 3.06 (17:20) 0.2 0 0 0 0.2
22-10-2020 17.8 (17:10) 13.4 (00:00) 15.6 10.28 (19:20) 4.72 (19:20) 18.4 0 3 3.6 11.8
21-10-2020 20.7 (14:30) 14.6 (00:00) 17.7 13.33 (11:20) 6.39 (11:20) 4.8 2 2.8 0 0
20-10-2020 30.6 (16:30) 13.6 (00:00) 22.1 21.11 (17:40) 8.33 (17:10) 7.4 0 0 0 7.4
19-10-2020 30.4 (17:10) 5.7 (00:00) 18 7.78 (12:20) 3.89 (11:50) 0 0 0 0 0
18-10-2020 28.6 (17:50) 3 (00:00) 15.8 6.94 (13:10) 3.89 (12:00) 0 0 0 0 0
17-10-2020 24.8 (17:20) 2.8 (00:00) 13.8 4.17 (15:50) 2.22 (16:20) 0 0 0 0 0
16-10-2020 24.6 (17:20) 3.4 (00:00) 14 5.28 (13:10) 2.78 (17:50) 0 0 0 0 0
15-10-2020 23.9 (16:50) 4.4 (00:00) 14.1 4.72 (13:00) 2.5 (15:30) 0 0 0 0 0
14-10-2020 24.3 (17:20) 7.8 (00:00) 16 7.5 (16:40) 4.17 (18:00) 0 0 0 0 0
13-10-2020 28.7 (17:20) 4.4 (00:00) 16.6 5.56 (18:30) 2.78 (18:40) 0 0 0 0 0
12-10-2020 25.4 (18:00) 8.8 (00:00) 17.1 8.33 (11:50) 3.61 (13:20) 0 0 0 0 0
11-10-2020 28.2 (17:20) 10.8 (00:00) 19.5 8.89 (14:50) 4.72 (14:50) 0 0 0 0 0
10-10-2020 32.6 (16:50) 10.2 (00:00) 21.4 5.28 (17:00) 2.78 (17:30) 0 0 0 0 0
09-10-2020 30.9 (17:20) 10.1 (00:00) 20.5 3.33 (11:20) 1.67 (11:20) 0 0 0 0 0
08-10-2020 33.3 (17:50) 8.7 (00:00) 21 3.89 (18:10) 2.22 (18:10) 0 0 0 0 0
07-10-2020 32.7 (17:50) 8.9 (00:00) 20.8 5.28 (11:20) 2.5 (12:30) 0 0 0 0 0
06-10-2020 28.8 (18:10) 7.3 (00:00) 18 4.17 (11:00) 1.94 (11:10) 0 0 0 0 0
05-10-2020 24.7 (18:10) 9.2 (00:00) 17 6.11 (17:30) 3.33 (16:10) 0 0 0 0 0
04-10-2020 24.2 (17:00) 5.5 (00:00) 14.9 8.89 (14:50) 5.28 (14:50) 0 0 0 0 0
03-10-2020 22.5 (18:00) 8.8 (00:00) 15.7 7.22 (14:00) 3.89 (14:00) 0 0 0 0 0
02-10-2020 21.8 (00:00) 13 (00:00) 17.4 16.94 (15:10) 9.44 (14:30) 6.8 0 0 6.8 0
01-10-2020 28.8 (17:10) 10.8 (00:00) 19.8 8.89 (17:50) 4.44 (16:30) 0 0 0 0 0

Gráficas

Temp. máximas Temp. mínimas Temp. medias Precipitaciones Rachas de viento máximas Velocidades máximas media en intervalos de 10 minutos

Datos horarios

Fecha y hora oficial Temperatura (ºC) Velocidad del viento (km/h) Dirección del viento Racha (km/h) Dirección de racha Precipitación (mm) Presión (hPa) Tendencia (hPa) Humedad (%)
2020-10-30 23:00:00 13.4 0 Calma 3 Norte 0 -- -- 90
2020-10-30 22:00:00 13.8 2 Sur 4 Sur 0 -- -- 87
2020-10-30 21:00:00 15.5 0 Calma 6 Norte 0 -- -- 84
2020-10-30 20:00:00 17.1 3 Norte 6 Norte 0 -- -- 79
2020-10-30 19:00:00 19.6 3 Norte 6 Noroeste 0 -- -- 70
2020-10-30 18:00:00 24.4 5 Norte 6 Norte 0 -- -- 51
2020-10-30 17:00:00 28.5 4 Este 10 Nordeste 0 -- -- 33
2020-10-30 16:00:00 28 6 Este 11 Sudeste 0 -- -- 37
2020-10-30 15:00:00 27.3 5 Este 13 Sudeste 0 -- -- 42
2020-10-30 14:00:00 26.1 7 Sudeste 18 Este 0 -- -- 43
2020-10-30 13:00:00 24.3 7 Sudeste 19 Este 0 -- -- 48
2020-10-30 12:00:00 21.7 4 Sudeste 16 Este 0 -- -- 59
2020-10-30 11:00:00 18.5 5 Sudeste 15 Este 0 -- -- 70
2020-10-30 10:00:00 13.7 2 Sur 5 Sur 0 -- -- 93
2020-10-30 09:00:00 10.1 0 Calma 3 Sur 0 -- -- 97
2020-10-30 08:00:00 8.1 0 Calma 3 Sur 0 -- -- 96
2020-10-30 07:00:00 8.6 0 Calma 5 Sur 0 -- -- 96
2020-10-30 06:00:00 8.7 0 Calma 4 Sudoeste 0 -- -- 96
2020-10-30 05:00:00 8.8 0 Calma 0 Calma 0 -- -- 95
2020-10-30 04:00:00 9.3 0 Calma 2 Norte 0 -- -- 94
2020-10-30 03:00:00 9.7 0 Calma 2 Sur 0 -- -- 94
2020-10-30 02:00:00 10.3 2 Sudeste 3 Sudeste 0 -- -- 93
2020-10-30 01:00:00 11.3 0 Calma 3 Este 0 -- -- 93
2020-10-30 00:00:00 12 3 Norte 5 Norte 0 -- -- 92
2020-10-29 23:00:00 12.9 3 Norte 4 Norte 0 -- -- 91
2020-10-29 22:00:00 13.7 0 Calma 2 Norte 0 -- -- 88
2020-10-29 21:00:00 14.9 0 Calma 2 Noroeste 0 -- -- 82
2020-10-29 20:00:00 16.8 0 Calma 2 Noroeste 0 -- -- 77
2020-10-29 19:00:00 19.7 3 Norte 8 Norte 0 -- -- 67
2020-10-29 18:00:00 25.1 2 Noroeste 5 Sudeste 0 -- -- 47
2020-10-29 17:00:00 27.5 3 Sudeste 10 Sudeste 0 -- -- 36
2020-10-29 16:00:00 27.2 4 Sudeste 15 Este 0 -- -- 38
2020-10-29 15:00:00 26.4 6 Sudeste 19 Este 0 -- -- 42
2020-10-29 14:00:00 24.9 7 Sudeste 18 Sudeste 0 -- -- 49
2020-10-29 13:00:00 22.8 6 Este 22 Sudeste 0 -- -- 56
2020-10-29 12:00:00 20.5 10 Sudeste 20 Sudeste 0 -- -- 63
2020-10-29 11:00:00 17.9 7 Sudeste 17 Este 0 -- -- 72
2020-10-29 10:00:00 14.6 6 Este 14 Sudeste 0 -- -- 89
2020-10-29 09:00:00 10.3 3 Sur 4 Sur 0 -- -- 97
2020-10-29 08:00:00 8.1 0 Calma 4 Sudoeste 0 -- -- 97
2020-10-29 07:00:00 7.7 0 Calma 3 Sur 0 -- -- 97
2020-10-29 06:00:00 7.6 0 Calma 3 Sur 0 -- -- 96
2020-10-29 05:00:00 8.2 0 Calma 4 Sudoeste 0 -- -- 96
2020-10-29 04:00:00 9.3 0 Calma 3 Norte 0 -- -- 95
2020-10-29 03:00:00 9.3 0 Calma 2 Sudeste 0 -- -- 95
2020-10-29 02:00:00 10.3 2 Norte 3 Norte 0 -- -- 95
2020-10-29 01:00:00 10.8 0 Calma 2 Sudoeste 0 -- -- 93
2020-10-29 00:00:00 11.2 0 Calma 3 Sur 0 -- -- 92
2020-10-28 23:00:00 12.1 0 Calma 5 Sudeste 0 -- -- 91
2020-10-28 22:00:00 12.7 0 Calma 2 Sudeste 0 -- -- 90
2020-10-28 21:00:00 13.9 0 Calma 4 Sudeste 0 -- -- 88
2020-10-28 20:00:00 15.4 0 Calma 6 Norte 0 -- -- 84
2020-10-28 19:00:00 17.5 5 Norte 6 Norte 0 -- -- 74
2020-10-28 18:00:00 21.3 0 Calma 6 Sur 0 -- -- 60
2020-10-28 17:00:00 22.7 3 Sur 8 Sudoeste 0 -- -- 50
2020-10-28 16:00:00 22.7 5 Sudoeste 13 Sur 0 -- -- 50
2020-10-28 15:00:00 22 4 Sudeste 10 Sudeste 0 -- -- 51
2020-10-28 14:00:00 20.7 4 Este 10 Este 0 -- -- 54
2020-10-28 13:00:00 19.1 6 Sudeste 13 Este 0 -- -- 58
2020-10-28 12:00:00 16.8 7 Sudeste 16 Sudeste 0 -- -- 63
2020-10-28 11:00:00 14.3 5 Sudeste 14 Sudeste 0 -- -- 73
2020-10-28 10:00:00 11.6 6 Sudeste 13 Este 0 -- -- 89
2020-10-28 09:00:00 7.6 0 Calma 4 Sur 0 -- -- 97
2020-10-28 08:00:00 6.5 0 Calma 2 Oeste 0 -- -- 97
2020-10-28 07:00:00 5.9 0 Calma 3 Sur 0 -- -- 96
2020-10-28 06:00:00 6.3 0 Calma 0 Calma 0 -- -- 95
2020-10-28 05:00:00 6.2 0 Calma 3 Sur 0 -- -- 95
2020-10-28 04:00:00 6.8 0 Calma 2 Sur 0 -- -- 95
2020-10-28 03:00:00 7.3 0 Calma 2 Sur 0 -- -- 95
2020-10-28 02:00:00 7.7 2 Sur 3 Sur 0 -- -- 94
2020-10-28 01:00:00 8.4 0 Calma 3 Sudeste 0 -- -- 93
2020-10-28 00:00:00 9 0 Calma 4 Oeste 0 -- -- 93
2020-10-27 23:00:00 9.5 2 Sudoeste 5 Oeste 0 -- -- 92
2020-10-27 22:00:00 10.5 0 Calma 3 Este 0 -- -- 90
2020-10-27 21:00:00 11.3 0 Calma 0 Calma 0 -- -- 87
2020-10-27 20:00:00 12.8 0 Calma 5 Norte 0 -- -- 82
2020-10-27 19:00:00 14.6 5 Norte 6 Norte 0 -- -- 68
2020-10-27 18:00:00 17.8 3 Oeste 8 Oeste 0 -- -- 54
2020-10-27 17:00:00 19.7 5 Oeste 14 Oeste 0 -- -- 47
2020-10-27 16:00:00 19.7 4 Sudoeste 15 Sudoeste 0 -- -- 45
2020-10-27 15:00:00 19 7 Sudoeste 14 Oeste 0 -- -- 48
2020-10-27 14:00:00 18.7 5 Sudoeste 13 Sudeste 0 -- -- 51
2020-10-27 13:00:00 16.8 3 Norte 10 Oeste 0 -- -- 60
2020-10-27 12:00:00 14.6 3 Sur 8 Sudeste 0 -- -- 67
2020-10-27 11:00:00 12.3 3 Este 10 Sudeste 0 -- -- 79
2020-10-27 10:00:00 9.8 5 Sudeste 10 Este 0 -- -- 95
2020-10-27 09:00:00 6.1 0 Calma 7 Sur 0 -- -- 98
2020-10-27 08:00:00 4.7 0 Calma 3 Sur 0 -- -- 97
2020-10-27 07:00:00 5.1 0 Calma 2 Sur 0 -- -- 96
2020-10-27 06:00:00 4.3 0 Calma 3 Sur 0 -- -- 96
2020-10-27 05:00:00 5.2 0 Calma 3 Oeste 0 -- -- 96
2020-10-27 04:00:00 5.2 0 Calma 4 Sur 0 -- -- 95
2020-10-27 03:00:00 5.9 0 Calma 3 Sur 0 -- -- 95
2020-10-27 02:00:00 6.5 0 Calma 4 Sur 0 -- -- 94
2020-10-27 01:00:00 6.9 0 Calma 4 Sudeste 0 -- -- 93
2020-10-27 00:00:00 8 0 Calma 4 Sudeste 0 -- -- 93
2020-10-26 23:00:00 8.5 3 Sudoeste 6 Sur 0 -- -- 90
2020-10-26 22:00:00 9.5 0 Calma 8 Sudeste 0 -- -- 88
2020-10-26 21:00:00 10.4 4 Norte 7 Norte 0 -- -- 87
2020-10-26 20:00:00 11.7 2 Noroeste 5 Oeste 0 -- -- 79
2020-10-26 19:00:00 13.8 3 Noroeste 15 Noroeste 0 -- -- 66
2020-10-26 18:00:00 16.3 8 Noroeste 21 Noroeste 0 -- -- 51
2020-10-26 17:00:00 17.1 12 Noroeste 24 Noroeste 0 -- -- 47
2020-10-26 16:00:00 17.9 12 Noroeste 24 Noroeste 0 -- -- 45
2020-10-26 15:00:00 18.8 10 Noroeste 24 Oeste 0 -- -- 45
2020-10-26 14:00:00 18.7 11 Oeste 23 Oeste 0 -- -- 47
2020-10-26 13:00:00 17.4 11 Oeste 22 Oeste 0 -- -- 55
2020-10-26 12:00:00 16.1 8 Noroeste 16 Noroeste 0 -- -- 59
2020-10-26 11:00:00 14.5 8 Oeste 22 Sudoeste 0 -- -- 71
2020-10-26 10:00:00 13.6 9 Oeste 15 Sudoeste 0 -- -- 81
2020-10-26 09:00:00 11.5 5 Oeste 10 Oeste 0 -- -- 92
2020-10-26 08:00:00 10.3 4 Noroeste 9 Oeste 0 -- -- 94
2020-10-26 07:00:00 10.8 3 Noroeste 8 Oeste 0 -- -- 93
2020-10-26 06:00:00 11.8 2 Sudoeste 7 Oeste 0 -- -- 91
2020-10-26 05:00:00 12.5 2 Oeste 13 Oeste 0 -- -- 88
2020-10-26 04:00:00 12.9 5 Noroeste 17 Oeste 0 -- -- 89
2020-10-26 03:00:00 13.6 8 Oeste 22 Sudoeste 0 -- -- 89
2020-10-26 02:00:00 14.3 6 Oeste -- -- 0.6 -- -- 92
2020-10-26 01:00:00 -- -- -- -- -- 0.6 -- -- --
2020-10-26 00:00:00 15.5 4 Oeste -- -- 4 -- -- 94
2020-10-25 23:00:00 15.9 15 Sudoeste -- -- 0.8 -- -- 92
2020-10-25 22:00:00 17.5 18 Sudoeste 36 Oeste 0 -- -- 80
2020-10-25 21:00:00 17.7 16 Sudoeste 32 Sudoeste 0 -- -- 75
2020-10-25 20:00:00 17.9 13 Sudoeste 26 Sudoeste 0 -- -- 75
2020-10-25 19:00:00 18.2 9 Sudoeste 24 Sudoeste 0 -- -- 70
2020-10-25 18:00:00 18.4 6 Sudoeste 16 Sudoeste 0 -- -- 69
2020-10-25 17:00:00 18.6 6 Oeste 20 Oeste 0 -- -- 69
2020-10-25 16:00:00 18.2 8 Oeste 23 Oeste 0 -- -- 70
2020-10-25 15:00:00 18.2 12 Sudoeste 23 Sudoeste 0 -- -- 70
2020-10-25 14:00:00 17.4 10 Oeste 27 Oeste 0 -- -- 74
2020-10-25 13:00:00 17.5 13 Oeste 24 Sudoeste 0 -- -- 76
2020-10-25 12:00:00 15.2 5 Oeste 15 Oeste 0 -- -- 84
2020-10-25 11:00:00 14.2 8 Oeste 17 Oeste 0 -- -- 90
2020-10-25 10:00:00 13.1 5 Noroeste 9 Noroeste 0 -- -- 97
2020-10-25 09:00:00 11.8 0 Calma 4 Sudeste 0 -- -- 97
2020-10-25 08:00:00 11.2 2 Sudoeste 3 Sudoeste 0 -- -- 97
2020-10-25 07:00:00 11 0 Calma 4 Sur 0 -- -- 97
2020-10-25 06:00:00 10.7 0 Calma 4 Sur 0 -- -- 97
2020-10-25 05:00:00 10.4 0 Calma 3 Sudoeste 0 -- -- 97
2020-10-25 04:00:00 8.9 0 Calma 3 Sur 0 -- -- 96
2020-10-25 03:00:00 9.2 0 Calma 3 Sur 0 -- -- 96
2020-10-25 02:00:00 10.3 0 Calma 4 Sudeste 0 -- -- 96
2020-10-25 01:00:00 11.4 0 Calma 3 Sur 0 -- -- 95
2020-10-25 00:00:00 11.7 0 Calma 0 Calma 0 -- -- 94
2020-10-24 23:00:00 12 0 Calma 0 Calma 0 -- -- 92
2020-10-24 22:00:00 13.3 0 Calma 2 Norte 0 -- -- 91
2020-10-24 21:00:00 14.5 0 Calma 3 Norte 0 -- -- 87
2020-10-24 20:00:00 16.4 0 Calma 7 Oeste 0 -- -- 79
2020-10-24 19:00:00 19.2 4 Oeste 15 Sudoeste 0 -- -- 68
2020-10-24 18:00:00 20.3 8 Oeste 15 Oeste 0 -- -- 64
2020-10-24 17:00:00 20.1 9 Oeste 17 Oeste 0 -- -- 69
2020-10-24 16:00:00 18.6 8 Oeste 17 Oeste 0 -- -- 77
2020-10-24 15:00:00 16.5 8 Oeste 15 Sudoeste 0 -- -- 85
2020-10-24 14:00:00 14.9 4 Noroeste 9 Oeste 0 -- -- 92
2020-10-24 13:00:00 14.1 2 Noroeste 6 Nordeste 0 -- -- 95
2020-10-24 12:00:00 13.2 2 Sudoeste 4 Sur 0 -- -- 97
2020-10-24 11:00:00 12.1 3 Sudeste 6 Sudeste 0 -- -- 98
2020-10-24 10:00:00 11.2 0 Calma 3 Sudoeste 0 -- -- 98
2020-10-24 09:00:00 10.5 0 Calma 4 Sudoeste 0 -- -- 98
2020-10-24 08:00:00 9.7 2 Sur 4 Sur 0 -- -- 98
2020-10-24 07:00:00 9.8 3 Sur 4 Sur 0 -- -- 97
2020-10-24 06:00:00 10 0 Calma 4 Sur 0 -- -- 97
2020-10-24 05:00:00 10.5 0 Calma 3 Sudoeste 0 -- -- 97
2020-10-24 04:00:00 11.1 2 Noroeste 3 Noroeste 0 -- -- 96
2020-10-24 03:00:00 10.4 0 Calma 4 Sudoeste 0 -- -- 96
2020-10-24 02:00:00 11.4 0 Calma 2 Sudoeste 0 -- -- 95
2020-10-24 01:00:00 11.9 0 Calma 2 Sudeste 0 -- -- 94
2020-10-24 00:00:00 12.9 0 Calma 3 Noroeste 0 -- -- 94
2020-10-23 23:00:00 13.7 0 Calma 3 Oeste 0 -- -- 92
2020-10-23 22:00:00 14.6 3 Noroeste 5 Norte 0 -- -- 90
2020-10-23 21:00:00 15.4 3 Sur 10 Noroeste 0 -- -- 88
2020-10-23 20:00:00 16.2 5 Noroeste -- -- 0.2 -- -- 81
2020-10-23 19:00:00 18.9 5 Oeste 18 Oeste 0 -- -- 63
2020-10-23 18:00:00 20.8 10 Sudoeste 21 Sudoeste 0 -- -- 55
2020-10-23 17:00:00 20.9 10 Sudoeste 20 Sudoeste 0 -- -- 57
2020-10-23 16:00:00 20.4 10 Sudoeste 21 Sudoeste 0 -- -- 61
2020-10-23 15:00:00 20.3 6 Sudoeste 17 Sudoeste 0 -- -- 66
2020-10-23 14:00:00 18.2 5 Oeste 19 Sudoeste 0 -- -- 77
2020-10-23 13:00:00 17 8 Sudoeste 16 Sudoeste 0 -- -- 81
2020-10-23 12:00:00 15.6 4 Noroeste 10 Oeste 0 -- -- 89
2020-10-23 11:00:00 14.9 3 Noroeste 9 Noroeste 0 -- -- 94
2020-10-23 10:00:00 14.5 3 Noroeste 6 Oeste 0 -- -- 97
2020-10-23 09:00:00 14.3 0 Calma 5 Oeste 0 -- -- 97
2020-10-23 08:00:00 14.2 2 Noroeste 5 Oeste 0 -- -- 97
2020-10-23 07:00:00 13.9 2 Noroeste 6 Noroeste 0 -- -- 98
2020-10-23 06:00:00 13.7 3 Noroeste 6 Noroeste 0 -- -- 97
2020-10-23 05:00:00 14.4 2 Noroeste 6 Noroeste 0 -- -- 97
2020-10-23 04:00:00 14 0 Calma 4 Sur 0 -- -- 97
2020-10-23 03:00:00 14.6 2 Norte 5 Oeste 0 -- -- 96
2020-10-23 02:00:00 14.9 2 Noroeste 6 Oeste 0 -- -- 96
2020-10-23 01:00:00 14.8 3 Noroeste 5 Noroeste 0 -- -- 96
2020-10-23 00:00:00 14.8 0 Calma 4 Oeste 0 -- -- 96
2020-10-22 23:00:00 15.3 3 Noroeste 4 Norte 0 -- -- 96
2020-10-22 22:00:00 15.7 0 Calma 4 Noroeste 0 -- -- 95
2020-10-22 21:00:00 15.9 2 Sudeste -- -- 3.8 -- -- 94
2020-10-22 20:00:00 16.4 3 Oeste -- -- 8 -- -- 92
2020-10-22 19:00:00 17.5 7 Este 18 Este 0 -- -- 89
2020-10-22 18:00:00 17.6 7 Este 15 Este 0 -- -- 88
2020-10-22 17:00:00 17.7 4 Este 15 Este 0 -- -- 88
2020-10-22 16:00:00 16.9 7 Este 19 Sudeste 0 -- -- 91
2020-10-22 15:00:00 16.3 8 Este -- -- 0.4 -- -- 93
2020-10-22 14:00:00 15.9 4 Sudeste -- -- 0.2 -- -- 94
2020-10-22 13:00:00 15.7 5 Este -- -- 3 -- -- 95
2020-10-22 12:00:00 -- -- -- -- -- 1 -- -- --
2020-10-22 11:00:00 15.4 2 Sudeste -- -- 0.4 -- -- 96
2020-10-22 10:00:00 15.1 4 Sudeste -- -- 0.2 -- -- 96
2020-10-22 09:00:00 -- -- -- -- -- 0.8 -- -- --
2020-10-22 08:00:00 -- -- -- -- -- 0.6 -- -- --
2020-10-22 07:00:00 13.9 0 Calma 7 Sudoeste 0 -- -- 96
2020-10-22 06:00:00 13.6 0 Calma 5 Sudeste 0 -- -- 96
2020-10-22 05:00:00 14.3 0 Calma 3 Sur 0 -- -- 95
2020-10-22 04:00:00 14.5 2 Sur 5 Este 0 -- -- 95
2020-10-22 03:00:00 14.6 0 Calma 5 Sudoeste 0 -- -- 94
2020-10-22 02:00:00 15.5 2 Sudeste 5 Noroeste 0 -- -- 94
2020-10-22 01:00:00 15.3 0 Calma 5 Sudoeste 0 -- -- 94
2020-10-22 00:00:00 15.8 0 Calma 6 Noroeste 0 -- -- 93
2020-10-21 23:00:00 16.5 2 Noroeste 3 Noroeste 0 -- -- 91
2020-10-21 22:00:00 17.3 0 Calma 4 Norte 0 -- -- 89
2020-10-21 21:00:00 18.3 0 Calma 6 Sudeste 0 -- -- 86
2020-10-21 20:00:00 19.2 0 Calma 2 Norte 0 -- -- 82
2020-10-21 19:00:00 20.2 0 Calma 12 Sudoeste 0 -- -- 73
2020-10-21 18:00:00 20.7 0 Calma 7 Noroeste 0 -- -- 74
2020-10-21 17:00:00 20.1 2 Nordeste 8 Norte 0 -- -- 77
2020-10-21 16:00:00 19.1 5 Noroeste 24 Sudoeste 0 -- -- 82
2020-10-21 15:00:00 20.6 9 Sudoeste 22 Sur 0 -- -- 73
2020-10-21 14:00:00 20 9 Sudoeste 26 Sudoeste 0 -- -- 79
2020-10-21 13:00:00 19.8 12 Sudoeste 21 Sudoeste 0 -- -- 78
2020-10-21 12:00:00 17.5 5 Noroeste -- -- 2.8 -- -- 91
2020-10-21 11:00:00 20.1 11 Sudoeste 22 Sur 0 -- -- 76
2020-10-21 10:00:00 17 4 Sudeste 8 Sudeste 0 -- -- 90
2020-10-21 09:00:00 16.5 3 Sudeste 6 Oeste 0 -- -- 89
2020-10-21 08:00:00 17 4 Sudoeste 24 Sudoeste 0 -- -- 86
2020-10-21 07:00:00 15.6 5 Sur 12 Sur 0 -- -- 93
2020-10-21 06:00:00 14.6 0 Calma 11 Sudoeste 0 -- -- 93
2020-10-21 05:00:00 15.5 0 Calma 5 Sur 0 -- -- 92
2020-10-21 04:00:00 15.8 2 Nordeste 8 Oeste 0 -- -- 91
2020-10-21 03:00:00 16.7 4 Oeste 10 Oeste 0 -- -- 87
2020-10-21 02:00:00 16.8 3 Oeste -- -- 0.2 -- -- 85
2020-10-21 01:00:00 17.3 9 Sudoeste -- -- 1.8 -- -- 86
2020-10-21 00:00:00 -- -- -- -- -- 7.4 -- -- --
2020-10-20 23:00:00 23.8 22 Sudoeste 55 Sudoeste 0 -- -- 49
2020-10-20 22:00:00 25.1 28 Sur 55 Sudoeste 0 -- -- 42
2020-10-20 21:00:00 24.9 19 Sudoeste 46 Oeste 0 -- -- 42
2020-10-20 20:00:00 26.5 23 Sudoeste 55 Sudoeste 0 -- -- 34
2020-10-20 19:00:00 27.9 25 Sudoeste 52 Sudoeste 0 -- -- 29
2020-10-20 18:00:00 28.4 18 Sudoeste 76 Sudoeste 0 -- -- 28
2020-10-20 17:00:00 30.4 28 Sudoeste 49 Sudoeste 0 -- -- 25
2020-10-20 16:00:00 28.4 9 Noroeste 18 Noroeste 0 -- -- 30
2020-10-20 15:00:00 26.8 6 Noroeste 10 Noroeste 0 -- -- 34
2020-10-20 14:00:00 25.4 2 Este 8 Este 0 -- -- 39
2020-10-20 13:00:00 24.7 3 Sur 8 Este 0 -- -- 41
2020-10-20 12:00:00 20.4 0 Calma 5 Este 0 -- -- 52
2020-10-20 11:00:00 16.6 0 Calma 8 Noroeste 0 -- -- 65
2020-10-20 10:00:00 14.9 2 Norte 6 Noroeste 0 -- -- 75
2020-10-20 09:00:00 14.1 2 Sudoeste 7 Sudeste 0 -- -- 76
2020-10-20 08:00:00 14.2 4 Norte 13 Sudoeste 0 -- -- 68
2020-10-20 07:00:00 13.6 0 Calma 5 Sur 0 -- -- 65
2020-10-20 06:00:00 14.7 0 Calma 4 Norte 0 -- -- 61
2020-10-20 05:00:00 14.7 0 Calma 7 Sudoeste 0 -- -- 57
2020-10-20 04:00:00 15 0 Calma 4 Este 0 -- -- 60
2020-10-20 03:00:00 14.8 0 Calma 5 Sudoeste 0 -- -- 56
2020-10-20 02:00:00 16.2 3 Sudeste 5 Sur 0 -- -- 55
2020-10-20 01:00:00 20 0 Calma 12 Noroeste 0 -- -- 44
2020-10-20 00:00:00 20.8 7 Noroeste 14 Noroeste 0 -- -- 39
2020-10-19 23:00:00 20.2 8 Noroeste 14 Noroeste 0 -- -- 41
2020-10-19 22:00:00 21.9 6 Noroeste 17 Noroeste 0 -- -- 38
2020-10-19 21:00:00 22.8 9 Noroeste 14 Noroeste 0 -- -- 33
2020-10-19 20:00:00 23.7 7 Noroeste 14 Noroeste 0 -- -- 32
2020-10-19 19:00:00 26 5 Noroeste 20 Oeste 0 -- -- 27
2020-10-19 18:00:00 28.8 11 Oeste 24 Oeste 0 -- -- 24
2020-10-19 17:00:00 30 3 Norte 9 Oeste 0 -- -- 24
2020-10-19 16:00:00 29 4 Norte 10 Sudeste 0 -- -- 25
2020-10-19 15:00:00 28.1 5 Sur 10 Sudoeste 0 -- -- 25
2020-10-19 14:00:00 26.3 5 Sur 21 Este 0 -- -- 27
2020-10-19 13:00:00 23.7 8 Este 28 Este 0 -- -- 30
2020-10-19 12:00:00 20.7 13 Este 27 Este 0 -- -- 34
2020-10-19 11:00:00 13.8 0 Calma 6 Sur 0 -- -- 59
2020-10-19 10:00:00 9 0 Calma 4 Noroeste 0 -- -- 73
2020-10-19 09:00:00 5.7 0 Calma 2 Sudoeste 0 -- -- 84
2020-10-19 08:00:00 6.2 0 Calma 3 Norte 0 -- -- 82
2020-10-19 07:00:00 7.1 0 Calma 5 Norte 0 -- -- 85
2020-10-19 06:00:00 7.1 0 Calma 3 Norte 0 -- -- 87
2020-10-19 05:00:00 6.6 0 Calma 2 Sur 0 -- -- 79
2020-10-19 04:00:00 7.6 0 Calma 3 Norte 0 -- -- 80
2020-10-19 03:00:00 8 0 Calma 7 Sudoeste 0 -- -- 76
2020-10-19 02:00:00 9 0 Calma 2 Noroeste 0 -- -- 75
2020-10-19 01:00:00 9.9 0 Calma 3 Norte 0 -- -- 74
2020-10-19 00:00:00 10.8 0 Calma 0 Calma 0 -- -- 65
2020-10-18 23:00:00 12.3 0 Calma 8 Oeste 0 -- -- 62
2020-10-18 22:00:00 14.1 4 Norte 6 Norte 0 -- -- 58
2020-10-18 21:00:00 16.4 0 Calma 5 Noroeste 0 -- -- 51
2020-10-18 20:00:00 20.1 5 Norte 7 Norte 0 -- -- 43
2020-10-18 19:00:00 26.4 5 Oeste 10 Oeste 0 -- -- 27
2020-10-18 18:00:00 28.1 5 Oeste 10 Oeste 0 -- -- 24
2020-10-18 17:00:00 28.5 5 Oeste 12 Oeste 0 -- -- 24
2020-10-18 16:00:00 27.5 7 Sur 13 Sur 0 -- -- 24
2020-10-18 15:00:00 26.7 4 Nordeste 16 Este 0 -- -- 25
2020-10-18 14:00:00 24.3 8 Este 25 Este 0 -- -- 31
2020-10-18 13:00:00 21.8 9 Sudeste 21 Sudeste 0 -- -- 36
2020-10-18 12:00:00 17.7 14 Sudeste 23 Sudeste 0 -- -- 43
2020-10-18 11:00:00 13.8 9 Este 18 Este 0 -- -- 53
2020-10-18 10:00:00 7.2 2 Sudeste 5 Sudeste 0 -- -- 77
2020-10-18 09:00:00 3.6 0 Calma 3 Sudeste 0 -- -- 89
2020-10-18 08:00:00 4.4 0 Calma 4 Norte 0 -- -- 89
2020-10-18 07:00:00 4 0 Calma 3 Sudeste 0 -- -- 85
2020-10-18 06:00:00 5.3 0 Calma 3 Noroeste 0 -- -- 87
2020-10-18 05:00:00 5.2 0 Calma 3 Nordeste 0 -- -- 81
2020-10-18 04:00:00 5.8 0 Calma 2 Sudeste 0 -- -- 79
2020-10-18 03:00:00 6.7 0 Calma 2 Sur 0 -- -- 78
2020-10-18 02:00:00 7.6 0 Calma 0 Calma 0 -- -- 76
2020-10-18 01:00:00 8.6 0 Calma 2 Norte 0 -- -- 73
2020-10-18 00:00:00 9.6 0 Calma 4 Sur 0 -- -- 65
2020-10-17 23:00:00 11 0 Calma 4 Sudeste 0 -- -- 61
2020-10-17 22:00:00 12.7 0 Calma 5 Norte 0 -- -- 66
2020-10-17 21:00:00 14.6 0 Calma 5 Norte 0 -- -- 56
2020-10-17 20:00:00 18.5 3 Norte 5 Norte 0 -- -- 45
2020-10-17 19:00:00 23.7 0 Calma 7 Sur 0 -- -- 36
2020-10-17 18:00:00 24.6 0 Calma 13 Sudoeste 0 -- -- 29
2020-10-17 17:00:00 24.7 5 Oeste 14 Oeste 0 -- -- 29
2020-10-17 16:00:00 24.3 5 Sudoeste 15 Oeste 0 -- -- 29
2020-10-17 15:00:00 23.3 4 Oeste 12 Oeste 0 -- -- 35
2020-10-17 14:00:00 20.9 4 Este 11 Este 0 -- -- 39
2020-10-17 13:00:00 19.3 4 Este 13 Este 0 -- -- 43
2020-10-17 12:00:00 16.4 5 Este 13 Este 0 -- -- 45
2020-10-17 11:00:00 12.6 6 Este 13 Sudeste 0 -- -- 53
2020-10-17 10:00:00 6.6 0 Calma 3 Sur 0 -- -- 73
2020-10-17 09:00:00 3.6 0 Calma 2 Sudeste 0 -- -- 81
2020-10-17 08:00:00 3.1 0 Calma 2 Este 0 -- -- 79
2020-10-17 07:00:00 3.7 0 Calma 2 Sur 0 -- -- 82
2020-10-17 06:00:00 4.1 0 Calma 2 Sudeste 0 -- -- 79
2020-10-17 05:00:00 4.9 0 Calma 2 Sur 0 -- -- 78
2020-10-17 04:00:00 5.7 0 Calma 2 Nordeste 0 -- -- 76
2020-10-17 03:00:00 7.2 0 Calma 9 Sudoeste 0 -- -- 71
2020-10-17 02:00:00 7.3 0 Calma 4 Sur 0 -- -- 71
2020-10-17 01:00:00 8 2 Oeste 3 Sudoeste 0 -- -- 66
2020-10-17 00:00:00 10.2 0 Calma 3 Sur 0 -- -- 65
2020-10-16 23:00:00 11.1 0 Calma 5 Norte 0 -- -- 70
2020-10-16 22:00:00 11.9 0 Calma 2 Noroeste 0 -- -- 59
2020-10-16 21:00:00 14.4 0 Calma 3 Noroeste 0 -- -- 52
2020-10-16 20:00:00 18.4 3 Noroeste 9 Sudoeste 0 -- -- 42
2020-10-16 19:00:00 23.3 5 Oeste 18 Sur 0 -- -- 26
2020-10-16 18:00:00 24 7 Sudoeste 19 Sudoeste 0 -- -- 24
2020-10-16 17:00:00 24.2 8 Sudoeste 14 Sudoeste 0 -- -- 25
2020-10-16 16:00:00 23.8 3 Norte 13 Sudoeste 0 -- -- 26
2020-10-16 15:00:00 23.1 5 Sudoeste 16 Sur 0 -- -- 28
2020-10-16 14:00:00 21.7 7 Sudeste 19 Este 0 -- -- 31
2020-10-16 13:00:00 19.8 9 Este 18 Sudeste 0 -- -- 36
2020-10-16 12:00:00 17 5 Sudeste 15 Sudeste 0 -- -- 43
2020-10-16 11:00:00 13.4 5 Este 13 Este 0 -- -- 55
2020-10-16 10:00:00 6.7 3 Sur 5 Sur 0 -- -- 77
2020-10-16 09:00:00 3.4 2 Sudeste 3 Sudeste 0 -- -- 84
2020-10-16 08:00:00 3.6 0 Calma 2 Este 0 -- -- 84
2020-10-16 07:00:00 4.2 0 Calma 2 Norte 0 -- -- 85
2020-10-16 06:00:00 4.5 0 Calma 0 Calma 0 -- -- 84
2020-10-16 05:00:00 5.1 0 Calma 0 Calma 0 -- -- 80
2020-10-16 04:00:00 5.9 0 Calma 3 Sur 0 -- -- 78
2020-10-16 03:00:00 6.7 0 Calma 4 Sur 0 -- -- 77
2020-10-16 02:00:00 8.1 0 Calma 7 Sur 0 -- -- 70
2020-10-16 01:00:00 9 0 Calma 8 Este 0 -- -- 75
2020-10-16 00:00:00 10 0 Calma 5 Sudeste 0 -- -- 74
2020-10-15 23:00:00 11 0 Calma 8 Norte 0 -- -- 68
2020-10-15 22:00:00 12.7 0 Calma 4 Norte 0 -- -- 67
2020-10-15 21:00:00 14.8 0 Calma 4 Norte 0 -- -- 60
2020-10-15 20:00:00 18.1 3 Norte 5 Norte 0 -- -- 47
2020-10-15 19:00:00 22.6 0 Calma 7 Sudoeste 0 -- -- 36
2020-10-15 18:00:00 22.5 4 Sur 11 Sur 0 -- -- 31
2020-10-15 17:00:00 23.9 5 Noroeste 15 Oeste 0 -- -- 28
2020-10-15 16:00:00 23.3 6 Noroeste 15 Sudoeste 0 -- -- 29
2020-10-15 15:00:00 22.6 5 Sudoeste 13 Oeste 0 -- -- 32
2020-10-15 14:00:00 21.2 4 Este 14 Este 0 -- -- 37
2020-10-15 13:00:00 19.3 6 Este 17 Este 0 -- -- 38
2020-10-15 12:00:00 17 6 Sudeste 14 Sudeste 0 -- -- 45
2020-10-15 11:00:00 13.3 5 Este 13 Este 0 -- -- 56
2020-10-15 10:00:00 7.6 0 Calma 5 Sur 0 -- -- 79
2020-10-15 09:00:00 4.6 0 Calma 2 Sudeste 0 -- -- 86
2020-10-15 08:00:00 4.8 0 Calma 2 Norte 0 -- -- 84
2020-10-15 07:00:00 5.5 2 Sur 3 Sur 0 -- -- 83
2020-10-15 06:00:00 6.3 0 Calma 3 Este 0 -- -- 84
2020-10-15 05:00:00 7.8 2 Norte 3 Norte 0 -- -- 85
2020-10-15 04:00:00 8.2 0 Calma 3 Norte 0 -- -- 78
2020-10-15 03:00:00 9.1 0 Calma 8 Sudeste 0 -- -- 76
2020-10-15 02:00:00 10.6 2 Noroeste 5 Sur 0 -- -- 72
2020-10-15 01:00:00 11.4 3 Norte 6 Norte 0 -- -- 75
2020-10-15 00:00:00 12.8 3 Norte 6 Noroeste 0 -- -- 69
2020-10-14 23:00:00 13.5 0 Calma 4 Noroeste 0 -- -- 62
2020-10-14 22:00:00 16 0 Calma 10 Noroeste 0 -- -- 61
2020-10-14 21:00:00 19.3 5 Noroeste 17 Noroeste 0 -- -- 43
2020-10-14 20:00:00 21.1 10 Noroeste 18 Noroeste 0 -- -- 40
2020-10-14 19:00:00 23.2 8 Noroeste 23 Sudoeste 0 -- -- 36
2020-10-14 18:00:00 23.8 15 Sudoeste 27 Sudoeste 0 -- -- 34
2020-10-14 17:00:00 24.2 10 Oeste 27 Oeste 0 -- -- 34
2020-10-14 16:00:00 23.6 13 Oeste 23 Oeste 0 -- -- 34
2020-10-14 15:00:00 22.8 15 Oeste 27 Oeste 0 -- -- 39
2020-10-14 14:00:00 21.4 9 Sudoeste 24 Sudoeste 0 -- -- 44
2020-10-14 13:00:00 19.9 8 Noroeste 19 Sudoeste 0 -- -- 50
2020-10-14 12:00:00 18.3 7 Noroeste 16 Norte 0 -- -- 55
2020-10-14 11:00:00 16.9 8 Noroeste 16 Noroeste 0 -- -- 62
2020-10-14 10:00:00 12.6 2 Sur 8 Oeste 0 -- -- 78
2020-10-14 09:00:00 7.9 2 Sudeste 4 Sur 0 -- -- 83
2020-10-14 08:00:00 8 0 Calma 4 Este 0 -- -- 79
2020-10-14 07:00:00 9.3 0 Calma 8 Noroeste 0 -- -- 74
2020-10-14 06:00:00 11.7 4 Noroeste 9 Noroeste 0 -- -- 67
2020-10-14 05:00:00 11.1 6 Noroeste 8 Noroeste 0 -- -- 77
2020-10-14 04:00:00 10.3 3 Noroeste 5 Noroeste 0 -- -- 79
2020-10-14 03:00:00 10.8 0 Calma 7 Norte 0 -- -- 79
2020-10-14 02:00:00 11.7 2 Norte 5 Norte 0 -- -- 82
2020-10-14 01:00:00 12.3 0 Calma 5 Norte 0 -- -- 72
2020-10-14 00:00:00 13.5 0 Calma 2 Sur 0 -- -- 75
2020-10-13 23:00:00 14.6 0 Calma 4 Norte 0 -- -- 69
2020-10-13 22:00:00 16.1 0 Calma 3 Noroeste 0 -- -- 64
2020-10-13 21:00:00 18.5 3 Noroeste 4 Norte 0 -- -- 54
2020-10-13 20:00:00 22.8 3 Noroeste 13 Oeste 0 -- -- 41
2020-10-13 19:00:00 27.3 6 Oeste 20 Sudoeste 0 -- -- 29
2020-10-13 18:00:00 28.5 6 Sudoeste 16 Sudoeste 0 -- -- 26
2020-10-13 17:00:00 28.3 5 Oeste 16 Sudoeste 0 -- -- 26
2020-10-13 16:00:00 27.1 6 Sur 13 Sur 0 -- -- 26
2020-10-13 15:00:00 25.8 4 Sudoeste 11 Sudeste 0 -- -- 28
2020-10-13 14:00:00 24.4 3 Sudoeste 11 Sur 0 -- -- 30
2020-10-13 13:00:00 21.5 4 Sur 10 Sudeste 0 -- -- 34
2020-10-13 12:00:00 18.6 5 Sudeste 11 Sudeste 0 -- -- 41
2020-10-13 11:00:00 14.8 6 Sudeste 12 Este 0 -- -- 49
2020-10-13 10:00:00 -- -- -- -- -- -- -- -- --
2020-10-13 09:00:00 5.4 0 Calma 0 Calma 0 -- -- 84
2020-10-13 08:00:00 4.4 0 Calma 3 Este 0 -- -- 83
2020-10-13 07:00:00 4.9 0 Calma 2 Sur 0 -- -- 80
2020-10-13 06:00:00 5.8 0 Calma 7 Sudoeste 0 -- -- 82
2020-10-13 05:00:00 6.9 0 Calma 4 Norte 0 -- -- 85
2020-10-13 04:00:00 6.9 0 Calma 5 Sur 0 -- -- 82
2020-10-13 03:00:00 7.6 0 Calma 5 Noroeste 0 -- -- 76
2020-10-13 02:00:00 8.2 0 Calma 3 Sur 0 -- -- 73
2020-10-13 01:00:00 -- -- -- -- -- -- -- -- --
2020-10-13 00:00:00 10.4 0 Calma 2 Sudeste 0 -- -- 65
2020-10-12 23:00:00 12.2 3 Noroeste 8 Norte 0 -- -- 60
2020-10-12 22:00:00 13.6 0 Calma 4 Sur 0 -- -- 51
2020-10-12 21:00:00 16 0 Calma 6 Nordeste 0 -- -- 50
2020-10-12 20:00:00 20.6 0 Calma 10 Sudeste 0 -- -- 42
2020-10-12 19:00:00 24.6 5 Este 13 Nordeste 0 -- -- 24
2020-10-12 18:00:00 25.4 4 Noroeste 13 Sudeste 0 -- -- 23
2020-10-12 17:00:00 24.9 5 Este 21 Nordeste 0 -- -- 25
2020-10-12 16:00:00 23.9 5 Sudeste 18 Sudeste 0 -- -- 26
2020-10-12 15:00:00 22.5 9 Este 23 Este 0 -- -- 28
2020-10-12 14:00:00 21.3 9 Este 26 Este 0 -- -- 31
2020-10-12 13:00:00 20.4 11 Este 26 Este 0 -- -- 33
2020-10-12 12:00:00 18.4 12 Este 30 Este 0 -- -- 39
2020-10-12 11:00:00 16.4 11 Este 27 Este 0 -- -- 45
2020-10-12 10:00:00 14.2 8 Sudeste 19 Este 0 -- -- 49
2020-10-12 09:00:00 10.5 4 Nordeste 9 Nordeste 0 -- -- 62
2020-10-12 08:00:00 9.1 0 Calma 5 Nordeste 0 -- -- 71
2020-10-12 07:00:00 10 4 Norte 9 Sudoeste 0 -- -- 64
2020-10-12 06:00:00 10.9 0 Calma 5 Este 0 -- -- 58
2020-10-12 05:00:00 12.3 0 Calma 8 Sudoeste 0 -- -- 48
2020-10-12 04:00:00 -- -- -- -- -- -- -- -- --
2020-10-12 03:00:00 11.8 2 Sudeste 9 Sudoeste 0 -- -- 52
2020-10-12 02:00:00 13.5 2 Noroeste 14 Nordeste 0 -- -- 52
2020-10-12 01:00:00 16.6 6 Nordeste 12 Este 0 -- -- 36
2020-10-12 00:00:00 17.1 0 Calma 9 Nordeste 0 -- -- 37
2020-10-11 23:00:00 19 4 Nordeste 17 Nordeste 0 -- -- 30
2020-10-11 22:00:00 18.4 0 Calma 11 Nordeste 0 -- -- 39
2020-10-11 21:00:00 -- -- -- -- -- -- -- -- --
2020-10-11 20:00:00 -- -- -- -- -- -- -- -- --
2020-10-11 19:00:00 26.9 15 Este 24 Este 0 -- -- 20
2020-10-11 18:00:00 28 11 Este 19 Este 0 -- -- 21
2020-10-11 17:00:00 27.9 6 Este 29 Sudeste 0 -- -- 22
2020-10-11 16:00:00 27 14 Este 29 Este 0 -- -- 25
2020-10-11 15:00:00 26.3 14 Este 32 Este 0 -- -- 29
2020-10-11 14:00:00 25.5 12 Este 27 Nordeste 0 -- -- 30
2020-10-11 13:00:00 24.6 11 Este 31 Este 0 -- -- 32
2020-10-11 12:00:00 22.8 10 Este 22 Este 0 -- -- 45
2020-10-11 11:00:00 20.1 6 Sudeste 15 Sudeste 0 -- -- 61
2020-10-11 10:00:00 14.5 0 Calma 5 Sur 0 -- -- 79
2020-10-11 09:00:00 11.5 0 Calma 7 Noroeste 0 -- -- 88
2020-10-11 08:00:00 11 2 Sudeste 4 Sudeste 0 -- -- 87
2020-10-11 07:00:00 11.3 0 Calma 3 Sudoeste 0 -- -- 84
2020-10-11 06:00:00 12.2 0 Calma 3 Este 0 -- -- 83
2020-10-11 05:00:00 12.9 0 Calma 2 Norte 0 -- -- 82
2020-10-11 04:00:00 14 0 Calma 2 Oeste 0 -- -- 80
2020-10-11 03:00:00 14.9 0 Calma 6 Sudeste 0 -- -- 75
2020-10-11 02:00:00 16.1 0 Calma 6 Norte 0 -- -- 68
2020-10-11 01:00:00 18.3 0 Calma 10 Noroeste 0 -- -- 64
2020-10-11 00:00:00 20.2 9 Noroeste 13 Noroeste 0 -- -- 52
2020-10-10 23:00:00 18.1 5 Noroeste 6 Norte 0 -- -- 66
2020-10-10 22:00:00 19.9 0 Calma 2 Norte 0 -- -- 65
2020-10-10 21:00:00 22.6 0 Calma 6 Noroeste 0 -- -- 51
2020-10-10 20:00:00 27 5 Noroeste 10 Oeste 0 -- -- 35
2020-10-10 19:00:00 31 5 Oeste 17 Oeste 0 -- -- 28
2020-10-10 18:00:00 32.4 8 Sudoeste 17 Sudoeste 0 -- -- 26
2020-10-10 17:00:00 32.4 9 Oeste 19 Noroeste 0 -- -- 29
2020-10-10 16:00:00 32 8 Oeste 17 Oeste 0 -- -- 29
2020-10-10 15:00:00 30.2 4 Noroeste 12 Oeste 0 -- -- 33
2020-10-10 14:00:00 28.6 3 Noroeste 13 Oeste 0 -- -- 38
2020-10-10 13:00:00 25.9 3 Sudeste 10 Sur 0 -- -- 43
2020-10-10 12:00:00 23.3 4 Sudeste 9 Sudeste 0 -- -- 50
2020-10-10 11:00:00 18.4 0 Calma 5 Sur 0 -- -- 64
2020-10-10 10:00:00 14.2 0 Calma 4 Sudoeste 0 -- -- 78
2020-10-10 09:00:00 10.9 0 Calma 2 Norte 0 -- -- 90
2020-10-10 08:00:00 10.3 0 Calma 2 Este 0 -- -- 85
2020-10-10 07:00:00 10.8 0 Calma 2 Este 0 -- -- 85
2020-10-10 06:00:00 11 0 Calma 2 Sur 0 -- -- 84
2020-10-10 05:00:00 12.1 0 Calma 3 Sudeste 0 -- -- 85
2020-10-10 04:00:00 13 0 Calma 3 Norte 0 -- -- 87
2020-10-10 03:00:00 13.5 0 Calma 3 Norte 0 -- -- 85
2020-10-10 02:00:00 14.2 0 Calma 3 Noroeste 0 -- -- 83
2020-10-10 01:00:00 14.9 0 Calma 3 Sudeste 0 -- -- 77
2020-10-10 00:00:00 16.2 0 Calma 2 Norte 0 -- -- 80
2020-10-09 23:00:00 17.2 0 Calma 5 Norte 0 -- -- 71
2020-10-09 22:00:00 19 0 Calma 3 Sudeste 0 -- -- 68
2020-10-09 21:00:00 21.3 0 Calma 5 Norte 0 -- -- 60
2020-10-09 20:00:00 25.3 4 Norte 5 Oeste 0 -- -- 48
2020-10-09 19:00:00 29.5 4 Noroeste 6 Noroeste 0 -- -- 37
2020-10-09 18:00:00 30.2 3 Noroeste 7 Noroeste 0 -- -- 33
2020-10-09 17:00:00 30.3 3 Norte 9 Oeste 0 -- -- 31
2020-10-09 16:00:00 30.2 3 Norte 6 Sudeste 0 -- -- 33
2020-10-09 15:00:00 29.4 2 Norte 11 Sur 0 -- -- 35
2020-10-09 14:00:00 28 5 Sur 9 Sur 0 -- -- 37
2020-10-09 13:00:00 26.1 3 Sudeste 10 Sur 0 -- -- 42
2020-10-09 12:00:00 23.2 5 Sudeste 12 Sudeste 0 -- -- 50
2020-10-09 11:00:00 19.2 3 Sudeste 6 Este 0 -- -- 60
2020-10-09 10:00:00 13.8 0 Calma 4 Sudoeste 0 -- -- 77
2020-10-09 09:00:00 10.4 0 Calma 2 Sur 0 -- -- 87
2020-10-09 08:00:00 10.3 0 Calma 0 Calma 0 -- -- 85
2020-10-09 07:00:00 10.8 0 Calma 2 Sur 0 -- -- 84
2020-10-09 06:00:00 11.7 0 Calma 2 Este 0 -- -- 85
2020-10-09 05:00:00 12 0 Calma 2 Norte 0 -- -- 81
2020-10-09 04:00:00 12.7 0 Calma 2 Sur 0 -- -- 79
2020-10-09 03:00:00 13.6 0 Calma 2 Sudeste 0 -- -- 81
2020-10-09 02:00:00 14.3 0 Calma 6 Norte 0 -- -- 77
2020-10-09 01:00:00 15.8 3 Norte 5 Norte 0 -- -- 77
2020-10-09 00:00:00 17.1 0 Calma 2 Norte 0 -- -- 71
2020-10-08 23:00:00 19.4 4 Noroeste 12 Noroeste 0 -- -- 61
2020-10-08 22:00:00 20.2 6 Noroeste 11 Noroeste 0 -- -- 58
2020-10-08 21:00:00 21.6 0 Calma 6 Norte 0 -- -- 58
2020-10-08 20:00:00 25.9 5 Noroeste 8 Oeste 0 -- -- 40
2020-10-08 19:00:00 30.9 4 Noroeste 14 Oeste 0 -- -- 30
2020-10-08 18:00:00 33.2 5 Noroeste 13 Noroeste 0 -- -- 25
2020-10-08 17:00:00 32.7 3 Norte 10 Sur 0 -- -- 26
2020-10-08 16:00:00 32 4 Sur 10 Sur 0 -- -- 28
2020-10-08 15:00:00 31.1 4 Sudoeste 13 Sudoeste 0 -- -- 29
2020-10-08 14:00:00 29.7 4 Sur 10 Sudeste 0 -- -- 32
2020-10-08 13:00:00 27.1 5 Sudeste 12 Este 0 -- -- 38
2020-10-08 12:00:00 24 3 Sudeste 12 Sudeste 0 -- -- 46
2020-10-08 11:00:00 18 2 Sudeste 5 Sur 0 -- -- 63
2020-10-08 10:00:00 13.2 3 Sur 5 Sudeste 0 -- -- 72
2020-10-08 09:00:00 9.3 0 Calma 0 Calma 0 -- -- 86
2020-10-08 08:00:00 9.3 0 Calma 2 Sudeste 0 -- -- 85
2020-10-08 07:00:00 9.3 0 Calma 2 Sur 0 -- -- 82
2020-10-08 06:00:00 9.8 0 Calma 2 Sur 0 -- -- 82
2020-10-08 05:00:00 10.3 0 Calma 2 Norte 0 -- -- 82
2020-10-08 04:00:00 11.3 0 Calma 3 Norte 0 -- -- 83
2020-10-08 03:00:00 11.7 0 Calma 3 Sur 0 -- -- 81
2020-10-08 02:00:00 12.4 0 Calma 4 Norte 0 -- -- 76
2020-10-08 01:00:00 13.7 0 Calma 5 Norte 0 -- -- 77
2020-10-08 00:00:00 14.1 4 Sudoeste 9 Sudoeste 0 -- -- 73
2020-10-07 23:00:00 16.4 0 Calma 2 Norte 0 -- -- 70
2020-10-07 22:00:00 18 0 Calma 3 Norte 0 -- -- 64
2020-10-07 21:00:00 21.2 0 Calma 5 Noroeste 0 -- -- 55
2020-10-07 20:00:00 26.2 4 Noroeste 6 Norte 0 -- -- 39
2020-10-07 19:00:00 32 3 Sudoeste 9 Sur 0 -- -- 28
2020-10-07 18:00:00 32.3 5 Sur 11 Sur 0 -- -- 24
2020-10-07 17:00:00 32.4 6 Sudoeste 14 Sudoeste 0 -- -- 25
2020-10-07 16:00:00 31.6 5 Sudeste 12 Este 0 -- -- 26
2020-10-07 15:00:00 30.2 5 Este 17 Este 0 -- -- 33
2020-10-07 14:00:00 28.4 6 Sudeste 17 Sudeste 0 -- -- 42
2020-10-07 13:00:00 25.7 8 Sudeste 18 Sudeste 0 -- -- 45
2020-10-07 12:00:00 22.6 8 Sudeste 19 Este 0 -- -- 52
2020-10-07 11:00:00 19.2 5 Sudeste 19 Este 0 -- -- 61
2020-10-07 10:00:00 13.9 5 Sudoeste 7 Sudoeste 0 -- -- 82
2020-10-07 09:00:00 9.8 0 Calma 5 Sur 0 -- -- 90
2020-10-07 08:00:00 9.8 0 Calma 3 Sur 0 -- -- 89
2020-10-07 07:00:00 10.3 0 Calma 4 Norte 0 -- -- 88
2020-10-07 06:00:00 10.5 0 Calma 5 Sur 0 -- -- 87
2020-10-07 05:00:00 11.1 0 Calma 4 Sur 0 -- -- 84
2020-10-07 04:00:00 11.9 0 Calma 5 Este 0 -- -- 85
2020-10-07 03:00:00 12.6 0 Calma 4 Noroeste 0 -- -- 83
2020-10-07 02:00:00 13.4 0 Calma 5 Sur 0 -- -- 82
2020-10-07 01:00:00 14.4 0 Calma 4 Este 0 -- -- 79
2020-10-07 00:00:00 15.6 0 Calma 4 Sur 0 -- -- 76
2020-10-06 23:00:00 16.5 2 Sudeste 7 Noroeste 0 -- -- 73
2020-10-06 22:00:00 18.5 0 Calma 3 Sudeste 0 -- -- 72
2020-10-06 21:00:00 20.6 0 Calma 8 Norte 0 -- -- 61
2020-10-06 20:00:00 24.5 4 Norte 6 Norte 0 -- -- 47
2020-10-06 19:00:00 28.4 0 Calma 8 Sudoeste 0 -- -- 36
2020-10-06 18:00:00 28.4 3 Sudeste 10 Este 0 -- -- 34
2020-10-06 17:00:00 27.8 4 Sur 12 Sur 0 -- -- 35
2020-10-06 16:00:00 27.3 6 Sur 10 Sudoeste 0 -- -- 35
2020-10-06 15:00:00 26.3 4 Sudoeste 14 Sudeste 0 -- -- 36
2020-10-06 14:00:00 24.8 3 Este 10 Nordeste 0 -- -- 39
2020-10-06 13:00:00 22 5 Sudeste 14 Este 0 -- -- 46
2020-10-06 12:00:00 19 6 Este 14 Sudeste 0 -- -- 54
2020-10-06 11:00:00 15.9 6 Este 15 Este 0 -- -- 67
2020-10-06 10:00:00 11 2 Sudeste 5 Sudeste 0 -- -- 85
2020-10-06 09:00:00 7.7 0 Calma 2 Sudeste 0 -- -- 91
2020-10-06 08:00:00 7.5 0 Calma 3 Sur 0 -- -- 89
2020-10-06 07:00:00 8.1 2 Sudeste 3 Este 0 -- -- 89
2020-10-06 06:00:00 8.1 0 Calma 3 Norte 0 -- -- 87
2020-10-06 05:00:00 8.1 3 Sudoeste 5 Sur 0 -- -- 85
2020-10-06 04:00:00 9.3 0 Calma 2 Norte 0 -- -- 86
2020-10-06 03:00:00 10 0 Calma 4 Sur 0 -- -- 84
2020-10-06 02:00:00 10.3 0 Calma 8 Sur 0 -- -- 79
2020-10-06 01:00:00 11 3 Sur 8 Sudoeste 0 -- -- 76
2020-10-06 00:00:00 11.7 0 Calma 6 Sur 0 -- -- 75
2020-10-05 23:00:00 13.5 0 Calma 5 Norte 0 -- -- 71
2020-10-05 22:00:00 15 0 Calma 4 Sudeste 0 -- -- 63
2020-10-05 21:00:00 17.5 0 Calma 8 Noroeste 0 -- -- 52
2020-10-05 20:00:00 21 4 Noroeste 17 Noroeste 0 -- -- 42
2020-10-05 19:00:00 23.9 9 Noroeste 17 Oeste 0 -- -- 35
2020-10-05 18:00:00 24.6 9 Noroeste 22 Oeste 0 -- -- 35
2020-10-05 17:00:00 23.7 8 Noroeste 21 Sudoeste 0 -- -- 38
2020-10-05 16:00:00 23.7 3 Este 17 Sudoeste 0 -- -- 40
2020-10-05 15:00:00 22.5 9 Sudoeste 18 Oeste 0 -- -- 40
2020-10-05 14:00:00 21.6 8 Sudoeste 19 Sudoeste 0 -- -- 43
2020-10-05 13:00:00 20.2 8 Oeste 19 Oeste 0 -- -- 47
2020-10-05 12:00:00 18.6 8 Sudoeste 19 Oeste 0 -- -- 53
2020-10-05 11:00:00 16.3 8 Oeste 15 Oeste 0 -- -- 63
2020-10-05 10:00:00 12.2 2 Sudeste 5 Sudeste 0 -- -- 89
2020-10-05 09:00:00 9.3 0 Calma 6 Norte 0 -- -- 94
2020-10-05 08:00:00 9.2 0 Calma 6 Noroeste 0 -- -- 94
2020-10-05 07:00:00 9.6 3 Noroeste 5 Norte 0 -- -- 93
2020-10-05 06:00:00 10 0 Calma 4 Norte 0 -- -- 92
2020-10-05 05:00:00 10.1 0 Calma 5 Norte 0 -- -- 90
2020-10-05 04:00:00 11.3 2 Noroeste 5 Noroeste 0 -- -- 91
2020-10-05 03:00:00 11.7 0 Calma 5 Norte 0 -- -- 90
2020-10-05 02:00:00 12.6 0 Calma 4 Noroeste 0 -- -- 89
2020-10-05 01:00:00 13.7 0 Calma 4 Sudeste 0 -- -- 84
2020-10-05 00:00:00 14.7 2 Norte 8 Sudoeste 0 -- -- 82
2020-10-04 23:00:00 15.7 3 Este 9 Sudeste 0 -- -- 77
2020-10-04 22:00:00 17.6 4 Noroeste 13 Noroeste 0 -- -- 70
2020-10-04 21:00:00 19.8 6 Noroeste 20 Noroeste 0 -- -- 61
2020-10-04 20:00:00 21 10 Noroeste 24 Noroeste 0 -- -- 57
2020-10-04 19:00:00 22.7 9 Oeste 22 Sudoeste 0 -- -- 47
2020-10-04 18:00:00 23.4 14 Oeste 28 Sudoeste 0 -- -- 45
2020-10-04 17:00:00 24.2 12 Oeste 31 Oeste 0 -- -- 44
2020-10-04 16:00:00 23.4 16 Oeste 31 Oeste 0 -- -- 43
2020-10-04 15:00:00 22.5 14 Oeste 32 Sudoeste 0 -- -- 46
2020-10-04 14:00:00 21.2 14 Oeste 24 Sudoeste 0 -- -- 49
2020-10-04 13:00:00 19.5 10 Oeste 18 Oeste 0 -- -- 55
2020-10-04 12:00:00 16.8 7 Sudoeste 13 Sudoeste 0 -- -- 65
2020-10-04 11:00:00 13.3 0 Calma 4 Nordeste 0 -- -- 81
2020-10-04 10:00:00 9.4 0 Calma 4 Sudeste 0 -- -- 93
2020-10-04 09:00:00 6.3 0 Calma 4 Sudoeste 0 -- -- 95
2020-10-04 08:00:00 5.7 0 Calma 4 Sur 0 -- -- 94
2020-10-04 07:00:00 5.8 3 Sudeste 5 Sur 0 -- -- 93
2020-10-04 06:00:00 6.7 0 Calma 3 Este 0 -- -- 92
2020-10-04 05:00:00 7.1 0 Calma 2 Este 0 -- -- 92
2020-10-04 04:00:00 7.4 0 Calma 6 Sudeste 0 -- -- 91
2020-10-04 03:00:00 8.6 0 Calma 4 Norte 0 -- -- 90
2020-10-04 02:00:00 9.3 0 Calma 3 Sudoeste 0 -- -- 90
2020-10-04 01:00:00 9.5 0 Calma 4 Sur 0 -- -- 87
2020-10-04 00:00:00 10.5 0 Calma 3 Sur 0 -- -- 84
2020-10-03 23:00:00 11.9 0 Calma 4 Norte 0 -- -- 81
2020-10-03 22:00:00 13.4 0 Calma 2 Este 0 -- -- 75
2020-10-03 21:00:00 15.7 2 Noroeste 6 Noroeste 0 -- -- 53
2020-10-03 20:00:00 18.8 5 Noroeste 12 Oeste 0 -- -- 41
2020-10-03 19:00:00 21.7 7 Noroeste 23 Sudoeste 0 -- -- 34
2020-10-03 18:00:00 22.5 9 Oeste 20 Sudoeste 0 -- -- 35
2020-10-03 17:00:00 21.4 9 Sudoeste 25 Sudoeste 0 -- -- 40
2020-10-03 16:00:00 20.1 12 Sur 24 Sudoeste 0 -- -- 46
2020-10-03 15:00:00 19 12 Sudoeste 23 Sudoeste 0 -- -- 50
2020-10-03 14:00:00 18 14 Sudoeste 26 Sudoeste 0 -- -- 55
2020-10-03 13:00:00 16.8 11 Sudoeste 23 Sudoeste 0 -- -- 60
2020-10-03 12:00:00 15.2 12 Sudoeste 23 Oeste 0 -- -- 64
2020-10-03 11:00:00 13.7 10 Sudoeste 19 Sudoeste 0 -- -- 70
2020-10-03 10:00:00 11.6 2 Este 5 Sur 0 -- -- 78
2020-10-03 09:00:00 8.8 0 Calma 8 Oeste 0 -- -- 87
2020-10-03 08:00:00 9.2 3 Noroeste 10 Noroeste 0 -- -- 84
2020-10-03 07:00:00 9.5 6 Noroeste 17 Oeste 0 -- -- 83
2020-10-03 06:00:00 9.6 3 Noroeste 12 Noroeste 0 -- -- 83
2020-10-03 05:00:00 10.1 0 Calma 18 Oeste 0 -- -- 81
2020-10-03 04:00:00 10.1 6 Oeste 12 Oeste 0 -- -- 80
2020-10-03 03:00:00 11.2 3 Norte 12 Oeste 0 -- -- 78
2020-10-03 02:00:00 11.7 5 Noroeste 13 Oeste 0 -- -- 76
2020-10-03 01:00:00 12 5 Oeste 13 Oeste 0 -- -- 77
2020-10-03 00:00:00 13 3 Sudeste 17 Oeste 0 -- -- 74
2020-10-02 23:00:00 13.3 5 Noroeste 13 Oeste 0 -- -- 75
2020-10-02 22:00:00 13.6 6 Sudoeste 12 Oeste 0 -- -- 76
2020-10-02 21:00:00 15.6 6 Oeste 21 Oeste 0 -- -- 66
2020-10-02 20:00:00 16.7 12 Oeste 23 Sudoeste 0 -- -- 63
2020-10-02 19:00:00 17.2 13 Noroeste 48 Noroeste 0 -- -- 67
2020-10-02 18:00:00 18.8 17 Oeste 42 Oeste 0 -- -- 62
2020-10-02 17:00:00 19.4 21 Noroeste -- -- 0.6 -- -- 74
2020-10-02 16:00:00 -- -- -- -- -- 5.8 -- -- --
2020-10-02 15:00:00 19.8 29 Sudoeste 58 Sudoeste 0 -- -- 83
2020-10-02 14:00:00 19.3 27 Oeste -- -- 0.2 -- -- 86
2020-10-02 13:00:00 17.3 22 Oeste -- -- 0.2 -- -- 91
2020-10-02 12:00:00 17 19 Oeste 44 Sudoeste 0 -- -- 88
2020-10-02 11:00:00 17 21 Sudoeste 41 Sudoeste 0 -- -- 74
2020-10-02 10:00:00 16.8 15 Sudoeste 32 Oeste 0 -- -- 71
2020-10-02 09:00:00 16.4 14 Sudoeste 28 Oeste 0 -- -- 71
2020-10-02 08:00:00 16.5 8 Oeste 19 Oeste 0 -- -- 70
2020-10-02 07:00:00 16.2 4 Oeste 12 Sudoeste 0 -- -- 69
2020-10-02 06:00:00 17.3 7 Oeste 15 Noroeste 0 -- -- 64
2020-10-02 05:00:00 17.9 8 Noroeste 18 Oeste 0 -- -- 62
2020-10-02 04:00:00 17.3 5 Oeste 12 Oeste 0 -- -- 68
2020-10-02 03:00:00 18.4 11 Sudoeste 17 Oeste 0 -- -- 64
2020-10-02 02:00:00 18.9 7 Noroeste 15 Oeste 0 -- -- 64
2020-10-02 01:00:00 20.2 3 Oeste 11 Noroeste 0 -- -- 59
2020-10-02 00:00:00 21.8 6 Noroeste 17 Oeste 0 -- -- 53
2020-10-01 23:00:00 21.9 5 Noroeste 13 Noroeste 0 -- -- 55
2020-10-01 22:00:00 22.9 6 Noroeste 12 Oeste 0 -- -- 51
2020-10-01 21:00:00 24.6 8 Sudoeste 20 Oeste 0 -- -- 43
2020-10-01 20:00:00 25.7 9 Oeste 27 Sudoeste 0 -- -- 41
2020-10-01 19:00:00 27.5 15 Oeste 26 Sudoeste 0 -- -- 37
2020-10-01 18:00:00 28.5 14 Sudoeste 32 Oeste 0 -- -- 35
2020-10-01 17:00:00 28.6 11 Oeste 27 Sudoeste 0 -- -- 35
2020-10-01 16:00:00 27.8 14 Sudoeste 28 Sudoeste 0 -- -- 37
2020-10-01 15:00:00 26.5 11 Sudoeste 23 Sudoeste 0 -- -- 42
2020-10-01 14:00:00 25.3 12 Oeste 27 Oeste 0 -- -- 47
2020-10-01 13:00:00 23 13 Sudoeste 19 Sudoeste 0 -- -- 60
2020-10-01 12:00:00 20.5 9 Oeste 21 Oeste 0 -- -- 70
2020-10-01 11:00:00 18.1 7 Noroeste 16 Noroeste 0 -- -- 83
2020-10-01 10:00:00 14.3 0 Calma 4 Sur 0 -- -- 83
2020-10-01 09:00:00 11.1 0 Calma 4 Este 0 -- -- 90
2020-10-01 08:00:00 11.2 0 Calma 4 Sudeste 0 -- -- 89
2020-10-01 07:00:00 11.6 0 Calma 3 Sur 0 -- -- 87
2020-10-01 06:00:00 12.5 0 Calma 4 Sudeste 0 -- -- 87
2020-10-01 05:00:00 13.5 2 Norte 7 Norte 0 -- -- 89
2020-10-01 04:00:00 13.5 0 Calma 2 Sur 0 -- -- 85
2020-10-01 03:00:00 14.4 0 Calma 6 Norte 0 -- -- 83
2020-10-01 02:00:00 15.7 0 Calma 4 Norte 0 -- -- 82
2020-10-01 01:00:00 16.4 0 Calma 5 Noroeste 0 -- -- 79
2020-10-01 00:00:00 17 6 Norte 8 Norte 0 -- -- 75